Time,TemperatureF,DewpointF,PressureIn,WindDirection,WindDirectionDegrees,WindSpeedMPH,WindSpeedGustMPH,Humidity,HourlyPrecipIn,Conditions,Clouds,dailyrainin,SoftwareType,DateUTC
2013-05-30 00:00:00,59.0,57.6,30.20,SSW,194,0.0,0.0,95,0.00,CLR,,0.00,WeatherDisplay:10.37,2013-05-30 04:00:00,
2013-05-30 00:01:00,59.0,57.6,30.19,SSW,194,0.0,0.0,95,0.00,CLR,,0.00,WeatherDisplay:10.37,2013-05-30 04:01:00,
2013-05-30 00:06:00,59.0,57.6,30.19,SSW,193,0.0,0.0,95,0.00,CLR,,0.00,WeatherDisplay:10.37,2013-05-30 04:06:00,
2013-05-30 00:11:00,59.0,57.6,30.19,SSW,194,0.0,0.0,95,0.00,CLR,,0.00,WeatherDisplay:10.37,2013-05-30 04:11:00,
2013-05-30 00:17:00,59.0,57.6,30.19,SSW,193,0.0,0.0,95,0.00,CLR,,0.00,WeatherDisplay:10.37,2013-05-30 04:17:00,
2013-05-30 00:22:00,58.8,57.4,30.19,SSW,194,0.0,0.0,95,0.00,CLR,,0.00,WeatherDisplay:10.37,2013-05-30 04:22:00,
2013-05-30 00:27:00,58.7,57.3,30.19,SSW,193,0.0,0.0,95,0.00,CLR,,0.00,WeatherDisplay:10.37,2013-05-30 04:27:00,
2013-05-30 00:32:00,58.5,57.1,30.19,SSW,193,0.0,0.0,95,0.00,CLR,,0.00,WeatherDisplay:10.37,2013-05-30 04:32:00,
2013-05-30 00:37:00,58.4,57.0,30.19,SSW,194,0.0,0.0,95,0.00,CLR,,0.00,WeatherDisplay:10.37,2013-05-30 04:37:00,
2013-05-30 00:42:00,58.4,57.0,30.19,SSW,194,0.0,0.0,95,0.00,CLR,,0.00,WeatherDisplay:10.37,2013-05-30 04:42:00,
2013-05-30 00:47:00,58.3,56.9,30.19,SSW,194,0.0,0.0,95,0.00,CLR,,0.00,WeatherDisplay:10.37,2013-05-30 04:47:00,
2013-05-30 00:52:00,58.2,56.8,30.19,SSW,194,0.0,0.0,95,0.00,CLR,,0.00,WeatherDisplay:10.37,2013-05-30 04:52:00,
2013-05-30 00:57:00,58.1,57.0,30.18,SSW,193,0.0,0.0,96,0.00,CLR,,0.00,WeatherDisplay:10.37,2013-05-30 04:57:00,
2013-05-30 01:02:00,58.0,56.9,30.18,SSW,194,0.0,0.0,96,0.00,,,0.00,WeatherDisplay:10.37,2013-05-30 05:02:00,
2013-05-30 01:07:00,57.9,56.8,30.19,SSW,194,0.0,0.0,96,0.00,,,0.00,WeatherDisplay:10.37,2013-05-30 05:07:00,
2013-05-30 01:12:00,57.7,56.3,30.19,SSW,194,0.0,0.0,95,0.00,,,0.00,WeatherDisplay:10.37,2013-05-30 05:12:00,
2013-05-30 01:17:00,57.5,56.1,30.18,SSW,194,0.0,0.0,95,0.00,,,0.00,WeatherDisplay:10.37,2013-05-30 05:17:00,
2013-05-30 01:22:00,57.4,56.0,30.18,SSW,194,0.0,0.0,95,0.00,,,0.00,WeatherDisplay:10.37,2013-05-30 05:22:00,
2013-05-30 01:27:00,57.3,56.2,30.19,SSW,194,0.0,0.0,96,0.00,,,0.00,WeatherDisplay:10.37,2013-05-30 05:27:00,
2013-05-30 01:32:00,57.2,56.1,30.19,SSW,194,0.0,0.0,96,0.00,,,0.00,WeatherDisplay:10.37,2013-05-30 05:32:00,
2013-05-30 01:37:00,57.2,56.1,30.19,SSW,193,0.0,0.0,96,0.00,,,0.00,WeatherDisplay:10.37,2013-05-30 05:37:00,
2013-05-30 01:42:00,57.1,56.0,30.19,SSW,194,0.0,0.0,96,0.00,,,0.00,WeatherDisplay:10.37,2013-05-30 05:42:00,
2013-05-30 01:47:00,57.0,55.9,30.19,SSW,194,0.0,0.0,96,0.00,,,0.00,WeatherDisplay:10.37,2013-05-30 05:47:00,
2013-05-30 01:52:00,56.9,55.8,30.19,SSW,193,0.0,0.0,96,0.00,,,0.00,WeatherDisplay:10.37,2013-05-30 05:52:00,
2013-05-30 01:57:00,56.8,55.7,30.19,SSW,194,0.0,0.0,96,0.00,,,0.00,WeatherDisplay:10.37,2013-05-30 05:57:00,
2013-05-30 02:02:00,56.7,55.6,30.18,SSW,193,0.0,0.0,96,0.00,,,0.00,WeatherDisplay:10.37,2013-05-30 06:02:00,
2013-05-30 02:07:00,56.7,55.6,30.18,SSW,194,0.0,0.0,96,0.00,,,0.00,WeatherDisplay:10.37,2013-05-30 06:07:00,
2013-05-30 02:12:00,56.6,55.5,30.18,SSW,194,0.0,0.0,96,0.00,,,0.00,WeatherDisplay:10.37,2013-05-30 06:12:00,
2013-05-30 02:17:00,56.6,55.5,30.17,SSW,193,0.0,0.0,96,0.00,,,0.00,WeatherDisplay:10.37,2013-05-30 06:17:00,
2013-05-30 02:22:00,56.4,55.3,30.17,SSW,193,0.0,0.0,96,0.00,,,0.00,WeatherDisplay:10.37,2013-05-30 06:22:00,
2013-05-30 02:27:00,56.3,55.2,30.17,SSW,194,0.0,0.0,96,0.00,,,0.00,WeatherDisplay:10.37,2013-05-30 06:27:00,
2013-05-30 02:32:00,56.3,55.2,30.17,SSW,194,0.0,0.0,96,0.00,,,0.00,WeatherDisplay:10.37,2013-05-30 06:32:00,
2013-05-30 02:37:00,56.2,55.1,30.17,SSW,193,0.0,0.0,96,0.00,,,0.00,WeatherDisplay:10.37,2013-05-30 06:37:00,
2013-05-30 02:42:00,56.1,55.0,30.17,SSW,194,0.0,0.0,96,0.00,,,0.00,WeatherDisplay:10.37,2013-05-30 06:42:00,
2013-05-30 02:47:00,56.0,54.9,30.17,SSW,193,0.0,0.0,96,0.00,,,0.00,WeatherDisplay:10.37,2013-05-30 06:47:00,
2013-05-30 02:53:00,55.9,54.8,30.17,SSW,193,0.0,0.0,96,0.00,,,0.00,WeatherDisplay:10.37,2013-05-30 06:53:00,
2013-05-30 02:58:00,55.9,54.8,30.18,SSW,194,0.0,0.0,96,0.00,,,0.00,WeatherDisplay:10.37,2013-05-30 06:58:00,
2013-05-30 03:03:00,55.8,54.7,30.17,SSW,194,0.0,0.0,96,0.00,,,0.00,WeatherDisplay:10.37,2013-05-30 07:03:00,
2013-05-30 03:08:00,55.8,55.0,30.17,SSW,193,0.0,0.0,97,0.00,,,0.00,WeatherDisplay:10.37,2013-05-30 07:08:00,
2013-05-30 03:13:00,55.7,54.9,30.18,SSW,194,0.0,0.0,97,0.00,,,0.00,WeatherDisplay:10.37,2013-05-30 07:13:00,
2013-05-30 03:18:00,55.7,54.9,30.18,SSW,193,0.0,0.0,97,0.00,,,0.00,WeatherDisplay:10.37,2013-05-30 07:18:00,
2013-05-30 03:23:00,55.6,54.8,30.18,SSW,194,0.0,0.0,97,0.00,,,0.00,WeatherDisplay:10.37,2013-05-30 07:23:00,
2013-05-30 03:28:00,55.5,54.7,30.18,SSW,193,0.0,0.0,97,0.00,,,0.00,WeatherDisplay:10.37,2013-05-30 07:28:00,
2013-05-30 03:33:00,55.5,54.7,30.18,SSW,193,0.0,0.0,97,0.00,,,0.00,WeatherDisplay:10.37,2013-05-30 07:33:00,
2013-05-30 03:38:00,55.6,54.8,30.18,SSW,193,0.0,0.0,97,0.00,,,0.00,WeatherDisplay:10.37,2013-05-30 07:38:00,
2013-05-30 03:43:00,55.6,54.8,30.18,SSW,194,0.0,0.0,97,0.00,,,0.00,WeatherDisplay:10.37,2013-05-30 07:43:00,
2013-05-30 03:48:00,55.6,54.8,30.18,SSW,194,0.0,0.0,97,0.00,,,0.00,WeatherDisplay:10.37,2013-05-30 07:48:00,
2013-05-30 03:53:00,55.5,54.7,30.19,SSW,194,0.0,0.0,97,0.00,,,0.00,WeatherDisplay:10.37,2013-05-30 07:53:00,
2013-05-30 03:58:00,55.4,54.6,30.19,SSW,194,0.0,0.0,97,0.00,,,0.00,WeatherDisplay:10.37,2013-05-30 07:58:00,
2013-05-30 04:03:00,55.1,54.3,30.19,SSW,194,0.0,0.0,97,0.00,,,0.00,WeatherDisplay:10.37,2013-05-30 08:03:00,
2013-05-30 04:08:00,55.0,54.2,30.19,SSW,194,0.0,0.0,97,0.00,,,0.00,WeatherDisplay:10.37,2013-05-30 08:08:00,
2013-05-30 04:13:00,54.9,54.1,30.19,SSW,193,0.0,0.0,97,0.00,,,0.00,WeatherDisplay:10.37,2013-05-30 08:13:00,
2013-05-30 04:18:00,54.9,54.1,30.19,SSW,194,0.0,0.0,97,0.00,,,0.00,WeatherDisplay:10.37,2013-05-30 08:18:00,
2013-05-30 04:23:00,55.0,54.2,30.19,SSW,194,0.0,0.0,97,0.00,,,0.00,WeatherDisplay:10.37,2013-05-30 08:23:00,
2013-05-30 04:28:00,55.0,54.2,30.20,SSW,194,0.0,0.0,97,0.00,,,0.00,WeatherDisplay:10.37,2013-05-30 08:28:00,
2013-05-30 04:33:00,54.9,54.1,30.20,SSW,193,0.0,0.0,97,0.00,,,0.00,WeatherDisplay:10.37,2013-05-30 08:33:00,
2013-05-30 04:38:00,54.9,54.1,30.20,SSW,194,0.0,0.0,97,0.00,,,0.00,WeatherDisplay:10.37,2013-05-30 08:38:00,
2013-05-30 04:43:00,54.9,54.1,30.20,SSW,193,0.0,0.0,97,0.00,,,0.00,WeatherDisplay:10.37,2013-05-30 08:43:00,
2013-05-30 04:48:00,54.8,54.0,30.20,SSW,193,0.0,0.0,97,0.00,,,0.00,WeatherDisplay:10.37,2013-05-30 08:48:00,
2013-05-30 04:53:00,54.7,53.9,30.20,SSW,194,0.0,0.0,97,0.00,,,0.00,WeatherDisplay:10.37,2013-05-30 08:53:00,
2013-05-30 04:58:00,54.7,53.9,30.20,SSW,193,0.0,0.0,97,0.00,,,0.00,WeatherDisplay:10.37,2013-05-30 08:58:00,
2013-05-30 05:03:00,54.6,53.8,30.20,SSW,194,0.0,0.0,97,0.00,,,0.00,WeatherDisplay:10.37,2013-05-30 09:03:00,
2013-05-30 05:08:00,54.6,53.8,30.21,SSW,194,0.0,0.0,97,0.00,,,0.00,WeatherDisplay:10.37,2013-05-30 09:08:00,
2013-05-30 05:13:00,54.6,53.8,30.21,SSW,193,0.0,0.0,97,0.00,,,0.00,WeatherDisplay:10.37,2013-05-30 09:13:00,
2013-05-30 05:18:00,54.6,53.8,30.21,SSW,194,0.0,0.0,97,0.00,,,0.00,WeatherDisplay:10.37,2013-05-30 09:18:00,
2013-05-30 05:23:00,54.5,53.7,30.21,SSW,194,0.0,0.0,97,0.00,,,0.00,WeatherDisplay:10.37,2013-05-30 09:23:00,
2013-05-30 05:28:00,54.5,53.7,30.22,SSW,193,0.0,0.0,97,0.00,,,0.00,WeatherDisplay:10.37,2013-05-30 09:28:00,
2013-05-30 05:33:00,54.4,53.6,30.22,SSW,194,0.0,0.0,97,0.00,,,0.00,WeatherDisplay:10.37,2013-05-30 09:33:00,
2013-05-30 05:38:00,54.3,53.5,30.23,SSW,194,0.0,0.0,97,0.00,,,0.00,WeatherDisplay:10.37,2013-05-30 09:38:00,
2013-05-30 05:43:00,54.2,53.4,30.22,SSW,194,0.0,0.0,97,0.00,,,0.00,WeatherDisplay:10.37,2013-05-30 09:43:00,
2013-05-30 05:48:00,54.1,53.3,30.22,SSW,194,0.0,0.0,97,0.00,,,0.00,WeatherDisplay:10.37,2013-05-30 09:48:00,
2013-05-30 05:53:00,54.1,53.3,30.22,SSW,194,0.0,0.0,97,0.00,,,0.00,WeatherDisplay:10.37,2013-05-30 09:53:00,
2013-05-30 05:58:00,54.0,53.2,30.22,SSW,194,0.0,0.0,97,0.00,,,0.00,WeatherDisplay:10.37,2013-05-30 09:58:00,
2013-05-30 06:03:00,54.0,53.2,30.23,SSW,194,0.0,0.0,97,0.00,CLR,,0.00,WeatherDisplay:10.37,2013-05-30 10:03:00,
2013-05-30 06:08:00,54.0,53.2,30.23,SSW,193,0.0,0.0,97,0.00,CLR,,0.00,WeatherDisplay:10.37,2013-05-30 10:08:00,
2013-05-30 06:13:00,53.9,53.1,30.23,SSW,194,0.0,0.0,97,0.00,CLR,,0.00,WeatherDisplay:10.37,2013-05-30 10:13:00,
2013-05-30 06:18:00,53.8,53.0,30.23,SSW,194,0.0,0.0,97,0.00,CLR,,0.00,WeatherDisplay:10.37,2013-05-30 10:18:00,
2013-05-30 06:23:00,53.7,52.9,30.23,SSW,194,0.0,0.0,97,0.00,CLR,,0.00,WeatherDisplay:10.37,2013-05-30 10:23:00,
2013-05-30 06:28:00,53.7,52.9,30.23,SSW,194,0.0,0.0,97,0.00,CLR,,0.00,WeatherDisplay:10.37,2013-05-30 10:28:00,
2013-05-30 06:33:00,53.7,52.9,30.23,SSW,194,0.0,0.0,97,0.00,CLR,,0.00,WeatherDisplay:10.37,2013-05-30 10:33:00,
2013-05-30 06:38:00,53.7,52.9,30.24,SSW,193,0.0,0.0,97,0.00,CLR,,0.00,WeatherDisplay:10.37,2013-05-30 10:38:00,
2013-05-30 06:43:00,53.8,53.0,30.23,SSW,193,0.0,0.0,97,0.00,CLR,,0.00,WeatherDisplay:10.37,2013-05-30 10:43:00,
2013-05-30 06:48:00,53.8,53.0,30.23,SE,133,0.0,0.0,97,0.00,CLR,,0.00,WeatherDisplay:10.37,2013-05-30 10:48:00,
2013-05-30 06:53:00,53.8,53.0,30.23,SE,133,0.0,0.0,97,0.00,CLR,,0.00,WeatherDisplay:10.37,2013-05-30 10:53:00,
2013-05-30 06:58:00,53.9,53.9,30.24,SE,136,0.0,0.0,100,0.00,CLR,,0.00,WeatherDisplay:10.37,2013-05-30 10:58:00,
2013-05-30 07:03:00,54.1,54.1,30.23,SE,135,0.0,0.0,100,0.00,CLR,,0.00,WeatherDisplay:10.37,2013-05-30 11:03:00,
2013-05-30 07:08:00,54.2,54.2,30.24,SE,135,0.0,0.0,100,0.00,CLR,,0.00,WeatherDisplay:10.37,2013-05-30 11:08:00,
2013-05-30 07:13:00,54.3,54.3,30.24,SE,135,0.0,0.0,100,0.00,CLR,,0.00,WeatherDisplay:10.37,2013-05-30 11:13:00,
2013-05-30 07:18:00,54.5,54.5,30.24,SE,135,0.0,0.0,100,0.00,CLR,,0.00,WeatherDisplay:10.37,2013-05-30 11:18:00,
2013-05-30 07:23:00,54.8,54.8,30.24,SE,136,0.4,1.0,100,0.00,CLR,,0.00,WeatherDisplay:10.37,2013-05-30 11:23:00,
2013-05-30 07:28:00,55.1,55.1,30.24,SE,136,0.0,0.0,100,0.00,CLR,,0.00,WeatherDisplay:10.37,2013-05-30 11:28:00,
2013-05-30 07:33:00,55.3,55.3,30.24,SE,136,0.0,0.0,100,0.00,CLR,,0.00,WeatherDisplay:10.37,2013-05-30 11:33:00,
2013-05-30 07:38:00,55.7,55.7,30.24,SE,135,0.0,0.0,100,0.00,CLR,,0.00,WeatherDisplay:10.37,2013-05-30 11:38:00,
2013-05-30 07:43:00,56.0,56.0,30.24,SE,136,0.0,0.0,100,0.00,CLR,,0.00,WeatherDisplay:10.37,2013-05-30 11:43:00,
2013-05-30 07:48:00,56.4,56.4,30.24,SE,136,0.0,0.0,100,0.00,CLR,,0.00,WeatherDisplay:10.37,2013-05-30 11:48:00,
2013-05-30 07:53:00,56.9,56.9,30.25,SE,135,0.0,0.0,100,0.00,CLR,,0.00,WeatherDisplay:10.37,2013-05-30 11:53:00,
2013-05-30 07:59:00,57.4,57.4,30.24,SE,136,0.0,0.0,100,0.00,CLR,,0.00,WeatherDisplay:10.37,2013-05-30 11:59:00,
2013-05-30 08:04:00,58.1,58.1,30.24,SE,135,0.0,0.0,100,0.00,CLR,,0.00,WeatherDisplay:10.37,2013-05-30 12:04:00,
2013-05-30 08:09:00,59.0,59.0,30.25,SE,135,0.0,0.0,100,0.00,CLR,,0.00,WeatherDisplay:10.37,2013-05-30 12:09:00,
2013-05-30 08:14:00,59.5,59.5,30.25,SE,136,0.0,0.0,100,0.00,CLR,,0.00,WeatherDisplay:10.37,2013-05-30 12:14:00,
2013-05-30 08:19:00,60.2,60.2,30.25,SE,136,0.0,0.0,100,0.00,CLR,,0.00,WeatherDisplay:10.37,2013-05-30 12:19:00,
2013-05-30 08:24:00,60.9,60.9,30.25,SE,136,0.0,0.0,100,0.00,CLR,,0.00,WeatherDisplay:10.37,2013-05-30 12:24:00,
2013-05-30 08:29:00,61.6,61.6,30.25,SE,136,0.0,0.0,100,0.00,CLR,,0.00,WeatherDisplay:10.37,2013-05-30 12:29:00,
2013-05-30 08:34:00,62.1,62.1,30.25,SE,135,0.0,0.0,100,0.00,CLR,,0.00,WeatherDisplay:10.37,2013-05-30 12:34:00,
2013-05-30 08:39:00,62.8,62.8,30.25,SE,135,0.0,0.0,100,0.00,CLR,,0.00,WeatherDisplay:10.37,2013-05-30 12:39:00,
2013-05-30 08:44:00,63.3,63.3,30.25,SE,136,0.0,0.0,100,0.00,CLR,,0.00,WeatherDisplay:10.37,2013-05-30 12:44:00,
2013-05-30 08:49:00,63.5,63.5,30.25,SE,136,0.0,0.0,100,0.00,CLR,,0.00,WeatherDisplay:10.37,2013-05-30 12:49:00,
2013-05-30 08:54:00,63.8,63.8,30.25,SE,135,0.0,0.0,100,0.00,CLR,,0.00,WeatherDisplay:10.37,2013-05-30 12:54:00,
2013-05-30 08:59:00,64.4,64.4,30.25,SE,136,0.0,0.0,100,0.00,CLR,,0.00,WeatherDisplay:10.37,2013-05-30 12:59:00,
2013-05-30 09:04:00,65.1,65.1,30.25,SE,136,0.0,0.0,100,0.00,CLR,,0.00,WeatherDisplay:10.37,2013-05-30 13:04:00,
2013-05-30 09:09:00,65.9,65.0,30.25,SE,136,0.0,1.2,97,0.00,CLR,,0.00,WeatherDisplay:10.37,2013-05-30 13:09:00,
2013-05-30 09:14:00,66.4,64.3,30.25,SE,136,0.0,0.0,93,0.00,CLR,,0.00,WeatherDisplay:10.37,2013-05-30 13:14:00,
2013-05-30 09:19:00,67.0,64.0,30.25,SE,135,0.1,1.2,90,0.00,CLR,,0.00,WeatherDisplay:10.37,2013-05-30 13:19:00,
2013-05-30 09:24:00,67.6,63.9,30.25,SE,134,0.0,1.2,88,0.00,CLR,,0.00,WeatherDisplay:10.37,2013-05-30 13:24:00,
2013-05-30 09:29:00,67.9,63.2,30.25,SE,134,0.0,0.0,85,0.00,CLR,,0.00,WeatherDisplay:10.37,2013-05-30 13:29:00,
2013-05-30 09:34:00,68.2,63.9,30.25,SE,134,0.0,0.0,86,0.00,CLR,,0.00,WeatherDisplay:10.37,2013-05-30 13:34:00,
2013-05-30 09:39:00,68.7,64.3,30.25,SE,134,0.0,1.0,86,0.00,CLR,,0.00,WeatherDisplay:10.37,2013-05-30 13:39:00,
2013-05-30 09:44:00,69.2,64.5,30.25,SE,134,0.0,0.0,85,0.00,CLR,,0.00,WeatherDisplay:10.37,2013-05-30 13:44:00,
2013-05-30 09:49:00,69.7,64.0,30.25,SE,135,0.0,1.2,82,0.00,CLR,,0.00,WeatherDisplay:10.37,2013-05-30 13:49:00,
2013-05-30 09:54:00,69.8,64.1,30.25,SSW,203,0.0,0.0,82,0.00,CLR,,0.00,WeatherDisplay:10.37,2013-05-30 13:54:00,
2013-05-30 09:59:00,70.2,63.7,30.25,SW,220,0.9,3.5,80,0.00,CLR,,0.00,WeatherDisplay:10.37,2013-05-30 13:59:00,
2013-05-30 10:04:00,70.6,63.8,30.25,SW,226,0.0,1.2,79,0.00,CLR,,0.00,WeatherDisplay:10.37,2013-05-30 14:04:00,
2013-05-30 10:09:00,71.0,64.2,30.25,SW,226,0.0,0.0,79,0.00,CLR,,0.00,WeatherDisplay:10.37,2013-05-30 14:09:00,
2013-05-30 10:14:00,71.3,64.8,30.25,SE,131,0.0,0.0,80,0.00,CLR,,0.00,WeatherDisplay:10.37,2013-05-30 14:14:00,
2013-05-30 10:19:00,71.1,63.5,30.25,SE,131,0.0,0.0,77,0.00,CLR,,0.00,WeatherDisplay:10.37,2013-05-30 14:19:00,
2013-05-30 10:24:00,70.8,64.0,30.25,ESE,114,0.0,0.0,79,0.00,CLR,,0.00,WeatherDisplay:10.37,2013-05-30 14:24:00,
2013-05-30 10:29:00,70.8,64.3,30.25,ESE,112,0.0,3.5,80,0.00,CLR,,0.00,WeatherDisplay:10.37,2013-05-30 14:29:00,
2013-05-30 10:34:00,70.8,63.6,30.25,NW,313,1.8,3.5,78,0.00,CLR,,0.00,WeatherDisplay:10.37,2013-05-30 14:34:00,
2013-05-30 10:39:00,70.6,64.5,30.25,NW,312,0.0,0.0,81,0.00,CLR,,0.00,WeatherDisplay:10.37,2013-05-30 14:39:00,
2013-05-30 10:44:00,70.3,63.8,30.25,WNW,302,0.0,1.2,80,0.00,CLR,,0.00,WeatherDisplay:10.37,2013-05-30 14:44:00,
2013-05-30 10:49:00,70.1,64.0,30.24,WNW,301,0.2,2.3,81,0.00,CLR,,0.00,WeatherDisplay:10.37,2013-05-30 14:49:00,
2013-05-30 10:54:00,70.0,63.9,30.24,WNW,301,0.0,0.0,81,0.00,CLR,,0.00,WeatherDisplay:10.37,2013-05-30 14:54:00,
2013-05-30 10:59:00,70.2,63.7,30.24,WNW,301,0.0,0.0,80,0.00,CLR,,0.00,WeatherDisplay:10.37,2013-05-30 14:59:00,
2013-05-30 11:04:00,70.8,63.2,30.24,WNW,301,0.0,0.0,77,0.00,CLR,,0.00,WeatherDisplay:10.37,2013-05-30 15:04:00,
2013-05-30 11:09:00,71.3,63.7,30.24,SSW,210,0.0,0.0,77,0.00,CLR,,0.00,WeatherDisplay:10.37,2013-05-30 15:09:00,
2013-05-30 11:14:00,72.0,63.6,30.24,SW,224,1.1,3.5,75,0.00,CLR,,0.00,WeatherDisplay:10.37,2013-05-30 15:14:00,
2013-05-30 11:19:00,72.4,63.6,30.24,North,5,0.0,0.0,74,0.00,CLR,,0.00,WeatherDisplay:10.37,2013-05-30 15:19:00,
2013-05-30 11:24:00,72.3,63.5,30.24,North,5,0.0,0.0,74,0.00,CLR,,0.00,WeatherDisplay:10.37,2013-05-30 15:24:00,
2013-05-30 11:29:00,72.1,64.1,30.24,North,5,0.1,1.2,76,0.00,CLR,,0.00,WeatherDisplay:10.37,2013-05-30 15:29:00,
2013-05-30 11:34:00,72.3,63.9,30.24,North,5,0.0,1.2,75,0.00,CLR,,0.00,WeatherDisplay:10.37,2013-05-30 15:34:00,
2013-05-30 11:39:00,72.4,63.6,30.23,North,351,0.0,0.0,74,0.00,CLR,,0.00,WeatherDisplay:10.37,2013-05-30 15:39:00,
2013-05-30 11:44:00,72.8,64.4,30.23,East,80,0.1,0.0,75,0.00,CLR,,0.00,WeatherDisplay:10.37,2013-05-30 15:44:00,
2013-05-30 11:49:00,73.5,63.5,30.23,North,10,0.0,0.0,71,0.00,CLR,,0.00,WeatherDisplay:10.37,2013-05-30 15:49:00,
2013-05-30 11:54:00,74.3,66.2,30.23,SW,222,1.3,4.6,76,0.00,CLR,,0.00,WeatherDisplay:10.37,2013-05-30 15:54:00,
2013-05-30 11:59:00,74.7,65.1,30.23,WSW,254,0.0,2.3,72,0.00,CLR,,0.00,WeatherDisplay:10.37,2013-05-30 15:59:00,
2013-05-30 12:04:00,74.0,64.8,30.23,West,281,0.0,0.0,73,0.00,CLR,,0.00,WeatherDisplay:10.37,2013-05-30 16:04:00,
2013-05-30 12:09:00,74.1,64.5,30.23,WSW,237,0.0,0.0,72,0.00,CLR,,0.00,WeatherDisplay:10.37,2013-05-30 16:09:00,
2013-05-30 12:14:00,74.2,64.6,30.23,SE,125,2.9,9.0,72,0.00,CLR,,0.00,WeatherDisplay:10.37,2013-05-30 16:14:00,
2013-05-30 12:19:00,74.4,62.7,30.23,South,177,1.6,3.5,67,0.00,CLR,,0.00,WeatherDisplay:10.37,2013-05-30 16:19:00,
2013-05-30 12:24:00,74.5,64.9,30.23,SE,140,1.4,3.5,72,0.00,CLR,,0.00,WeatherDisplay:10.37,2013-05-30 16:24:00,
2013-05-30 12:29:00,74.7,64.7,30.23,SSE,161,0.0,0.0,71,0.00,CLR,,0.00,WeatherDisplay:10.37,2013-05-30 16:29:00,
2013-05-30 12:34:00,74.9,64.0,30.22,SE,131,0.1,3.5,69,0.00,CLR,,0.00,WeatherDisplay:10.37,2013-05-30 16:34:00,
2013-05-30 12:39:00,75.2,65.6,30.22,SE,133,3.3,4.6,72,0.00,CLR,,0.00,WeatherDisplay:10.37,2013-05-30 16:39:00,
2013-05-30 12:44:00,75.4,63.2,30.22,SSE,150,0.7,3.5,66,0.00,CLR,,0.00,WeatherDisplay:10.37,2013-05-30 16:44:00,
2013-05-30 12:49:00,75.7,64.0,30.22,SSE,158,0.9,4.6,67,0.00,CLR,,0.00,WeatherDisplay:10.37,2013-05-30 16:49:00,
2013-05-30 12:54:00,76.0,64.7,30.22,SE,135,0.0,2.3,68,0.00,CLR,,0.00,WeatherDisplay:10.37,2013-05-30 16:54:00,
2013-05-30 12:59:00,75.9,64.6,30.22,SE,135,0.1,0.0,68,0.00,CLR,,0.00,WeatherDisplay:10.37,2013-05-30 16:59:00,
2013-05-30 13:04:00,75.6,64.3,30.22,SE,135,0.0,0.0,68,0.00,CLR,,0.00,WeatherDisplay:10.37,2013-05-30 17:04:00,
2013-05-30 13:09:00,75.2,63.9,30.22,SSE,148,2.2,3.5,68,0.00,CLR,,0.00,WeatherDisplay:10.37,2013-05-30 17:09:00,
2013-05-30 13:14:00,75.1,63.4,30.21,SE,146,0.0,1.2,67,0.00,CLR,,0.00,WeatherDisplay:10.37,2013-05-30 17:14:00,
2013-05-30 13:19:00,75.5,65.0,30.21,SE,136,0.5,9.0,70,0.00,CLR,,0.00,WeatherDisplay:10.37,2013-05-30 17:19:00,
2013-05-30 13:24:00,75.0,63.7,30.21,ESE,115,0.0,10.4,68,0.00,CLR,,0.00,WeatherDisplay:10.37,2013-05-30 17:24:00,
2013-05-30 13:30:00,74.8,63.9,30.21,SSE,152,1.3,6.0,69,0.00,CLR,,0.00,WeatherDisplay:10.37,2013-05-30 17:30:00,
2013-05-30 13:35:00,75.2,63.9,30.21,SE,137,6.2,11.5,68,0.00,CLR,,0.00,WeatherDisplay:10.37,2013-05-30 17:35:00,
2013-05-30 13:40:00,75.2,64.7,30.20,SE,136,0.0,0.0,70,0.00,CLR,,0.00,WeatherDisplay:10.37,2013-05-30 17:40:00,
2013-05-30 13:45:00,75.5,66.2,30.20,SE,132,1.7,5.8,73,0.00,CLR,,0.00,WeatherDisplay:10.37,2013-05-30 17:45:00,
2013-05-30 13:50:00,75.6,63.0,30.20,SE,133,0.2,3.5,65,0.00,CLR,,0.00,WeatherDisplay:10.37,2013-05-30 17:50:00,
2013-05-30 13:55:00,76.0,65.5,30.20,ENE,64,0.2,3.5,70,0.00,CLR,,0.00,WeatherDisplay:10.37,2013-05-30 17:55:00,
2013-05-30 14:00:00,76.2,65.3,30.20,SE,131,2.5,6.9,69,0.00,CLR,,0.00,WeatherDisplay:10.37,2013-05-30 18:00:00,
2013-05-30 14:05:00,76.4,65.1,30.20,SE,125,7.7,11.5,68,0.00,CLR,,0.00,WeatherDisplay:10.37,2013-05-30 18:05:00,
2013-05-30 14:10:00,76.4,65.1,30.20,SSE,147,0.2,3.0,68,0.00,CLR,,0.00,WeatherDisplay:10.37,2013-05-30 18:10:00,
2013-05-30 14:15:00,76.4,64.6,30.19,SE,136,6.2,9.2,67,0.00,CLR,,0.00,WeatherDisplay:10.37,2013-05-30 18:15:00,
2013-05-30 14:20:00,75.8,64.5,30.19,SE,125,3.1,8.1,68,0.00,CLR,,0.00,WeatherDisplay:10.37,2013-05-30 18:20:00,
2013-05-30 14:25:00,75.1,63.4,30.19,SE,139,6.6,10.0,67,0.00,CLR,,0.00,WeatherDisplay:10.37,2013-05-30 18:25:00,
2013-05-30 14:30:00,74.5,64.5,30.19,SSE,151,0.0,0.0,71,0.00,CLR,,0.00,WeatherDisplay:10.37,2013-05-30 18:30:00,
2013-05-30 14:35:00,74.5,64.5,30.19,SSE,163,2.0,5.0,71,0.00,CLR,,0.00,WeatherDisplay:10.37,2013-05-30 18:35:00,
2013-05-30 14:40:00,74.4,63.6,30.19,SE,128,5.0,6.9,69,0.00,CLR,,0.00,WeatherDisplay:10.37,2013-05-30 18:40:00,
2013-05-30 14:45:00,74.7,64.3,30.19,SE,136,5.1,11.5,70,0.00,CLR,,0.00,WeatherDisplay:10.37,2013-05-30 18:45:00,
2013-05-30 14:50:00,75.3,64.4,30.19,ESE,119,0.0,1.2,69,0.00,CLR,,0.00,WeatherDisplay:10.37,2013-05-30 18:50:00,
2013-05-30 14:55:00,75.8,64.5,30.18,SE,131,5.1,10.4,68,0.00,CLR,,0.00,WeatherDisplay:10.37,2013-05-30 18:55:00,
2013-05-30 15:00:00,75.7,64.4,30.18,ENE,61,0.7,2.3,68,0.00,CLR,,0.00,WeatherDisplay:10.37,2013-05-30 19:00:00,
2013-05-30 15:05:00,75.9,65.0,30.18,NE,49,1.4,4.6,69,0.00,CLR,,0.00,WeatherDisplay:10.37,2013-05-30 19:05:00,
2013-05-30 15:10:00,76.4,64.2,30.18,NE,48,0.0,0.0,66,0.00,CLR,,0.00,WeatherDisplay:10.37,2013-05-30 19:10:00,
2013-05-30 15:15:00,76.6,65.2,30.18,ESE,117,3.0,5.8,68,0.00,CLR,,0.00,WeatherDisplay:10.37,2013-05-30 19:15:00,
2013-05-30 15:20:00,76.7,63.6,30.18,SE,125,0.0,0.0,64,0.00,CLR,,0.00,WeatherDisplay:10.37,2013-05-30 19:20:00,
2013-05-30 15:25:00,76.5,62.5,30.18,SE,129,0.6,3.5,62,0.00,CLR,,0.00,WeatherDisplay:10.37,2013-05-30 19:25:00,
2013-05-30 15:30:00,75.9,62.8,30.18,SE,133,2.7,7.0,64,0.00,CLR,,0.00,WeatherDisplay:10.37,2013-05-30 19:30:00,
2013-05-30 15:35:00,75.3,63.6,30.18,SE,133,1.3,5.8,67,0.00,CLR,,0.00,WeatherDisplay:10.37,2013-05-30 19:35:00,
2013-05-30 15:40:00,75.0,62.4,30.18,SE,146,2.9,11.5,65,0.00,CLR,,0.00,WeatherDisplay:10.37,2013-05-30 19:40:00,
2013-05-30 15:45:00,75.3,63.6,30.17,SE,133,0.0,1.2,67,0.00,CLR,,0.00,WeatherDisplay:10.37,2013-05-30 19:45:00,
2013-05-30 15:50:00,75.8,64.5,30.17,SE,136,2.5,4.6,68,0.00,CLR,,0.00,WeatherDisplay:10.37,2013-05-30 19:50:00,
2013-05-30 15:55:00,76.3,63.7,30.17,SE,133,0.0,1.2,65,0.00,CLR,,0.00,WeatherDisplay:10.37,2013-05-30 19:55:00,
2013-05-30 16:00:00,76.7,63.6,30.17,SE,129,3.9,10.0,64,0.00,CLR,,0.00,WeatherDisplay:10.37,2013-05-30 20:00:00,
2013-05-30 16:05:00,76.2,63.1,30.17,South,171,0.0,1.2,64,0.00,CLR,,0.00,WeatherDisplay:10.37,2013-05-30 20:05:00,
2013-05-30 16:10:00,76.5,63.0,30.17,SSE,148,0.1,3.5,63,0.00,CLR,,0.00,WeatherDisplay:10.37,2013-05-30 20:10:00,
2013-05-30 16:15:00,76.8,64.1,30.17,SW,227,1.8,2.3,65,0.00,CLR,,0.00,WeatherDisplay:10.37,2013-05-30 20:15:00,
2013-05-30 16:20:00,77.1,63.5,30.17,SE,144,1.0,3.0,63,0.00,CLR,,0.00,WeatherDisplay:10.37,2013-05-30 20:20:00,
2013-05-30 16:25:00,77.0,63.4,30.17,SSE,148,2.8,5.8,63,0.00,CLR,,0.00,WeatherDisplay:10.37,2013-05-30 20:25:00,
2013-05-30 16:30:00,76.6,62.1,30.17,SE,141,3.2,8.1,61,0.00,CLR,,0.00,WeatherDisplay:10.37,2013-05-30 20:30:00,
2013-05-30 16:35:00,76.2,62.2,30.17,SE,133,4.7,5.8,62,0.00,CLR,,0.00,WeatherDisplay:10.37,2013-05-30 20:35:00,
2013-05-30 16:40:00,76.0,62.5,30.17,SE,136,3.5,6.9,63,0.00,CLR,,0.00,WeatherDisplay:10.37,2013-05-30 20:40:00,
2013-05-30 16:45:00,76.0,63.4,30.17,South,175,0.3,4.6,65,0.00,CLR,,0.00,WeatherDisplay:10.37,2013-05-30 20:45:00,
2013-05-30 16:50:00,76.1,63.5,30.17,SSE,153,3.2,4.6,65,0.00,CLR,,0.00,WeatherDisplay:10.37,2013-05-30 20:50:00,
2013-05-30 16:55:00,76.3,64.1,30.17,SE,130,1.7,4.6,66,0.00,CLR,,0.00,WeatherDisplay:10.37,2013-05-30 20:55:00,
2013-05-30 17:00:00,76.4,62.9,30.17,SE,135,2.4,4.6,63,0.00,CLR,,0.00,WeatherDisplay:10.37,2013-05-30 21:00:00,
2013-05-30 17:05:00,76.6,62.1,30.17,SE,139,3.2,5.8,61,0.00,CLR,,0.00,WeatherDisplay:10.37,2013-05-30 21:05:00,
2013-05-30 17:10:00,76.4,62.9,30.17,SE,141,1.4,3.5,63,0.00,CLR,,0.00,WeatherDisplay:10.37,2013-05-30 21:10:00,
2013-05-30 17:15:00,76.4,62.9,30.16,SSE,149,3.9,3.9,63,0.00,CLR,,0.00,WeatherDisplay:10.37,2013-05-30 21:15:00,
2013-05-30 17:20:00,76.1,62.1,30.17,SE,125,4.7,8.1,62,0.00,CLR,,0.00,WeatherDisplay:10.37,2013-05-30 21:20:00,
2013-05-30 17:26:00,75.8,62.8,30.16,SE,138,2.0,4.6,64,0.00,CLR,,0.00,WeatherDisplay:10.37,2013-05-30 21:26:00,
2013-05-30 17:31:00,75.7,61.3,30.16,SE,139,0.4,5.8,61,0.00,CLR,,0.00,WeatherDisplay:10.37,2013-05-30 21:31:00,
2013-05-30 17:36:00,75.7,63.5,30.16,SE,140,0.0,1.2,66,0.00,CLR,,0.00,WeatherDisplay:10.37,2013-05-30 21:36:00,
2013-05-30 17:41:00,75.7,62.7,30.16,SE,133,2.8,3.5,64,0.00,CLR,,0.00,WeatherDisplay:10.37,2013-05-30 21:41:00,
2013-05-30 17:46:00,75.8,62.3,30.16,SE,129,4.5,10.4,63,0.00,CLR,,0.00,WeatherDisplay:10.37,2013-05-30 21:46:00,
2013-05-30 17:51:00,75.7,61.8,30.16,SE,135,2.9,10.4,62,0.00,CLR,,0.00,WeatherDisplay:10.37,2013-05-30 21:51:00,
2013-05-30 17:56:00,75.6,62.1,30.16,SE,142,3.1,4.6,63,0.00,CLR,,0.00,WeatherDisplay:10.37,2013-05-30 21:56:00,
2013-05-30 18:01:00,75.5,61.1,30.16,SE,130,5.2,6.9,61,0.00,CLR,,0.00,WeatherDisplay:10.37,2013-05-30 22:01:00,
2013-05-30 18:06:00,75.4,61.9,30.16,SE,139,3.5,5.8,63,0.00,CLR,,0.00,WeatherDisplay:10.37,2013-05-30 22:06:00,
2013-05-30 18:11:00,75.4,62.4,30.16,SE,135,0.0,1.2,64,0.00,CLR,,0.00,WeatherDisplay:10.37,2013-05-30 22:11:00,
2013-05-30 18:16:00,75.4,62.4,30.16,SE,133,3.7,7.0,64,0.00,CLR,,0.00,WeatherDisplay:10.37,2013-05-30 22:16:00,
2013-05-30 18:21:00,75.3,61.4,30.16,SE,131,4.6,5.8,62,0.00,CLR,,0.00,WeatherDisplay:10.37,2013-05-30 22:21:00,
2013-05-30 18:26:00,75.1,61.6,30.16,ESE,109,3.2,5.8,63,0.00,CLR,,0.00,WeatherDisplay:10.37,2013-05-30 22:26:00,
2013-05-30 18:31:00,75.0,61.1,30.16,SE,138,3.6,5.0,62,0.00,CLR,,0.00,WeatherDisplay:10.37,2013-05-30 22:31:00,
2013-05-30 18:36:00,74.8,61.4,30.16,SE,146,4.6,10.4,63,0.00,CLR,,0.00,WeatherDisplay:10.37,2013-05-30 22:36:00,
2013-05-30 18:41:00,74.7,62.1,30.16,SE,133,0.4,4.6,65,0.00,CLR,,0.00,WeatherDisplay:10.37,2013-05-30 22:41:00,
2013-05-30 18:46:00,74.5,60.6,30.16,SE,127,2.0,9.2,62,0.00,CLR,,0.00,WeatherDisplay:10.37,2013-05-30 22:46:00,
2013-05-30 18:51:00,74.2,60.3,30.16,ESE,123,3.3,5.8,62,0.00,CLR,,0.00,WeatherDisplay:10.37,2013-05-30 22:51:00,
2013-05-30 18:56:00,74.0,60.6,30.16,ESE,117,1.3,4.6,63,0.00,CLR,,0.00,WeatherDisplay:10.37,2013-05-30 22:56:00,
2013-05-30 19:01:00,73.8,61.3,30.16,SE,127,2.8,4.0,65,0.00,CLR,,0.00,WeatherDisplay:10.37,2013-05-30 23:01:00,
2013-05-30 19:06:00,73.5,61.0,30.17,SE,136,0.7,2.3,65,0.00,CLR,,0.00,WeatherDisplay:10.37,2013-05-30 23:06:00,
2013-05-30 19:11:00,73.4,61.3,30.16,ESE,118,0.0,1.2,66,0.00,CLR,,0.00,WeatherDisplay:10.37,2013-05-30 23:11:00,
2013-05-30 19:16:00,73.3,60.8,30.17,SE,140,4.5,5.8,65,0.00,CLR,,0.00,WeatherDisplay:10.37,2013-05-30 23:16:00,
2013-05-30 19:21:00,73.1,61.5,30.16,SE,133,0.0,1.2,67,0.00,CLR,,0.00,WeatherDisplay:10.37,2013-05-30 23:21:00,
2013-05-30 19:26:00,72.9,61.7,30.17,SE,133,0.4,4.0,68,0.00,CLR,,0.00,WeatherDisplay:10.37,2013-05-30 23:26:00,
2013-05-30 19:31:00,72.7,61.5,30.16,SE,141,0.0,0.0,68,0.00,CLR,,0.00,WeatherDisplay:10.37,2013-05-30 23:31:00,
2013-05-30 19:36:00,72.5,61.3,30.16,SE,142,0.0,0.0,68,0.00,CLR,,0.00,WeatherDisplay:10.37,2013-05-30 23:36:00,
2013-05-30 19:41:00,72.2,61.5,30.16,SE,141,0.0,0.0,69,0.00,CLR,,0.00,WeatherDisplay:10.37,2013-05-30 23:41:00,
2013-05-30 19:46:00,72.1,61.4,30.17,SE,138,0.0,0.0,69,0.00,CLR,,0.00,WeatherDisplay:10.37,2013-05-30 23:46:00,
2013-05-30 19:51:00,71.9,61.2,30.17,SE,143,0.2,0.0,69,0.00,CLR,,0.00,WeatherDisplay:10.37,2013-05-30 23:51:00,
2013-05-30 19:56:00,71.8,61.5,30.17,SE,143,0.0,0.0,70,0.00,CLR,,0.00,WeatherDisplay:10.37,2013-05-30 23:56:00,
2013-05-30 20:01:00,71.5,61.2,30.17,SE,143,0.0,0.0,70,0.00,CLR,,0.00,WeatherDisplay:10.37,2013-05-31 00:01:00,
2013-05-30 20:06:00,71.3,61.4,30.17,SE,144,0.0,0.0,71,0.00,CLR,,0.00,WeatherDisplay:10.37,2013-05-31 00:06:00,
2013-05-30 20:11:00,71.0,61.5,30.17,SE,143,0.0,0.0,72,0.00,CLR,,0.00,WeatherDisplay:10.37,2013-05-31 00:11:00,
2013-05-30 20:16:00,70.6,61.5,30.17,SE,144,0.0,0.0,73,0.00,CLR,,0.00,WeatherDisplay:10.37,2013-05-31 00:16:00,
2013-05-30 20:21:00,70.4,61.7,30.17,SE,144,0.0,0.0,74,0.00,CLR,,0.00,WeatherDisplay:10.37,2013-05-31 00:21:00,
2013-05-30 20:26:00,70.1,61.4,30.17,SE,144,0.0,0.0,74,0.00,CLR,,0.00,WeatherDisplay:10.37,2013-05-31 00:26:00,
2013-05-30 20:31:00,69.8,61.5,30.17,SE,144,0.0,0.0,75,0.00,CLR,,0.00,WeatherDisplay:10.37,2013-05-31 00:31:00,
2013-05-30 20:36:00,69.4,61.5,30.17,SE,144,0.0,0.0,76,0.00,CLR,,0.00,WeatherDisplay:10.37,2013-05-31 00:36:00,
2013-05-30 20:41:00,69.0,61.1,30.17,SE,144,0.0,0.0,76,0.00,CLR,,0.00,WeatherDisplay:10.37,2013-05-31 00:41:00,
2013-05-30 20:46:00,68.6,61.5,30.17,SE,144,0.0,0.0,78,0.00,CLR,,0.00,WeatherDisplay:10.37,2013-05-31 00:46:00,
2013-05-30 20:51:00,68.0,61.2,30.17,SE,144,0.0,0.0,79,0.00,CLR,,0.00,WeatherDisplay:10.37,2013-05-31 00:51:00,
2013-05-30 20:56:00,67.4,61.4,30.17,SE,143,0.0,0.0,81,0.00,CLR,,0.00,WeatherDisplay:10.37,2013-05-31 00:56:00,
2013-05-30 21:01:00,66.9,61.2,30.17,SE,144,0.0,0.0,82,0.00,,,0.00,WeatherDisplay:10.37,2013-05-31 01:01:00,
2013-05-30 21:06:00,66.4,61.1,30.17,SE,144,0.0,0.0,83,0.00,,,0.00,WeatherDisplay:10.37,2013-05-31 01:06:00,
2013-05-30 21:11:00,66.1,61.5,30.17,SE,143,0.0,0.0,85,0.00,,,0.00,WeatherDisplay:10.37,2013-05-31 01:11:00,
2013-05-30 21:16:00,65.6,61.3,30.18,SE,144,0.0,0.0,86,0.00,,,0.00,WeatherDisplay:10.37,2013-05-31 01:16:00,
2013-05-30 21:21:00,65.3,61.3,30.18,SE,143,0.0,0.0,87,0.00,,,0.00,WeatherDisplay:10.37,2013-05-31 01:21:00,
2013-05-30 21:26:00,65.1,61.1,30.18,SE,144,0.0,0.0,87,0.00,,,0.00,WeatherDisplay:10.37,2013-05-31 01:26:00,
2013-05-30 21:31:00,64.9,60.9,30.18,SE,144,0.0,0.0,87,0.00,,,0.00,WeatherDisplay:10.37,2013-05-31 01:31:00,
2013-05-30 21:36:00,64.6,61.0,30.18,SE,143,0.0,0.0,88,0.00,,,0.00,WeatherDisplay:10.37,2013-05-31 01:36:00,
2013-05-30 21:41:00,64.3,60.7,30.18,SE,144,0.0,0.0,88,0.00,,,0.00,WeatherDisplay:10.37,2013-05-31 01:41:00,
2013-05-30 21:46:00,64.2,60.6,30.18,SE,144,0.0,0.0,88,0.00,,,0.00,WeatherDisplay:10.37,2013-05-31 01:46:00,
2013-05-30 21:51:00,64.0,60.7,30.18,SE,143,0.0,0.0,89,0.00,,,0.00,WeatherDisplay:10.37,2013-05-31 01:51:00,
2013-05-30 21:56:00,63.9,60.9,30.18,SE,143,0.0,0.0,90,0.00,,,0.00,WeatherDisplay:10.37,2013-05-31 01:56:00,
2013-05-30 22:01:00,63.6,60.6,30.18,SE,144,0.0,0.0,90,0.00,,,0.00,WeatherDisplay:10.37,2013-05-31 02:01:00,
2013-05-30 22:06:00,63.3,60.3,30.18,SE,144,0.0,0.0,90,0.00,,,0.00,WeatherDisplay:10.37,2013-05-31 02:06:00,
2013-05-30 22:11:00,63.1,60.1,30.19,SE,144,0.0,0.0,90,0.00,,,0.00,WeatherDisplay:10.37,2013-05-31 02:11:00,
2013-05-30 22:16:00,62.9,60.2,30.19,SE,144,0.0,0.0,91,0.00,,,0.00,WeatherDisplay:10.37,2013-05-31 02:16:00,
2013-05-30 22:21:00,62.8,60.1,30.18,SE,143,0.0,0.0,91,0.00,,,0.00,WeatherDisplay:10.37,2013-05-31 02:21:00,
2013-05-30 22:26:00,62.6,59.9,30.19,SE,144,0.0,0.0,91,0.00,,,0.00,WeatherDisplay:10.37,2013-05-31 02:26:00,
2013-05-30 22:32:00,62.5,60.1,30.19,SE,143,0.0,0.0,92,0.00,,,0.00,WeatherDisplay:10.37,2013-05-31 02:32:00,
2013-05-30 22:37:00,62.3,59.9,30.19,SE,144,0.0,0.0,92,0.00,,,0.00,WeatherDisplay:10.37,2013-05-31 02:37:00,
2013-05-30 22:42:00,62.2,59.8,30.19,SE,144,0.0,0.0,92,0.00,,,0.00,WeatherDisplay:10.37,2013-05-31 02:42:00,
2013-05-30 22:47:00,62.0,59.6,30.19,SE,144,0.0,0.0,92,0.00,,,0.00,WeatherDisplay:10.37,2013-05-31 02:47:00,
2013-05-30 22:52:00,61.8,59.5,30.19,SE,143,0.0,0.0,92,0.00,,,0.00,WeatherDisplay:10.37,2013-05-31 02:52:00,
2013-05-30 22:57:00,61.6,59.3,30.19,SE,144,0.0,0.0,92,0.00,,,0.00,WeatherDisplay:10.37,2013-05-31 02:57:00,
2013-05-30 23:02:00,61.5,59.5,30.19,SE,144,0.0,0.0,93,0.00,,,0.00,WeatherDisplay:10.37,2013-05-31 03:02:00,
2013-05-30 23:07:00,61.5,59.8,30.20,SE,143,0.0,0.0,94,0.00,,,0.00,WeatherDisplay:10.37,2013-05-31 03:07:00,
2013-05-30 23:12:00,61.4,59.7,30.19,SE,144,0.0,0.0,94,0.00,,,0.00,WeatherDisplay:10.37,2013-05-31 03:12:00,
2013-05-30 23:17:00,61.3,59.6,30.19,SE,143,0.0,0.0,94,0.00,,,0.00,WeatherDisplay:10.37,2013-05-31 03:17:00,
2013-05-30 23:22:00,61.2,59.5,30.19,SE,143,0.0,0.0,94,0.00,,,0.00,WeatherDisplay:10.37,2013-05-31 03:22:00,
2013-05-30 23:27:00,61.1,59.4,30.19,SE,144,0.0,0.0,94,0.00,,,0.00,WeatherDisplay:10.37,2013-05-31 03:27:00,
2013-05-30 23:32:00,61.0,59.3,30.19,SE,144,0.0,0.0,94,0.00,,,0.00,WeatherDisplay:10.37,2013-05-31 03:32:00,
2013-05-30 23:37:00,60.9,59.2,30.19,SE,144,0.0,0.0,94,0.00,,,0.00,WeatherDisplay:10.37,2013-05-31 03:37:00,
2013-05-30 23:42:00,60.8,59.1,30.19,SE,144,0.0,0.0,94,0.00,,,0.00,WeatherDisplay:10.37,2013-05-31 03:42:00,
2013-05-30 23:47:00,60.7,59.0,30.19,SE,144,0.0,0.0,94,0.00,,,0.00,WeatherDisplay:10.37,2013-05-31 03:47:00,
2013-05-30 23:52:00,60.7,59.3,30.19,SE,143,0.0,0.0,95,0.00,,,0.00,WeatherDisplay:10.37,2013-05-31 03:52:00,
2013-05-30 23:57:00,60.7,59.3,30.19,SE,144,0.0,0.0,95,0.00,,,0.00,WeatherDisplay:10.37,2013-05-31 03:57:00,